createdAt,value
2022-08-03T00:01:22.704Z,3.30
2022-08-03T00:03:49.160Z,3.13
2022-08-03T00:06:15.571Z,3.20
2022-08-03T00:08:42.079Z,3.25
2022-08-03T00:11:08.653Z,3.40
2022-08-03T00:13:35.191Z,3.25
2022-08-03T00:16:01.622Z,2.85
2022-08-03T00:18:28.014Z,2.70
2022-08-03T00:20:54.771Z,3.00
2022-08-03T00:23:21.527Z,2.85
2022-08-03T00:25:47.954Z,2.60
2022-08-03T00:28:14.424Z,2.92
2022-08-03T00:30:42.016Z,2.88
2022-08-03T00:33:10.207Z,3.15
2022-08-03T00:35:50.670Z,3.15
2022-08-03T00:38:17.952Z,2.80
2022-08-03T00:40:44.336Z,3.20
2022-08-03T00:43:11.470Z,2.93
2022-08-03T00:45:40.249Z,3.28
2022-08-03T00:48:29.601Z,3.33
2022-08-03T00:50:55.290Z,3.17
2022-08-03T00:53:22.177Z,2.75
2022-08-03T00:55:48.617Z,2.80
2022-08-03T00:58:15.139Z,2.65
2022-08-03T01:00:41.724Z,2.70
2022-08-03T01:03:10.104Z,3.30
2022-08-03T01:06:19.795Z,2.67
2022-08-03T01:09:02.953Z,2.75
2022-08-03T01:11:59.965Z,3.30
2022-08-03T01:15:03.019Z,3.00
2022-08-03T01:17:36.766Z,3.17
2022-08-03T01:20:07.980Z,3.10
2022-08-03T01:23:19.469Z,2.75
2022-08-03T01:26:06.142Z,2.90
2022-08-03T01:29:03.603Z,3.13
2022-08-03T01:33:00.339Z,3.20
2022-08-03T01:34:31.394Z,3.27
2022-08-03T01:37:03.136Z,3.30
2022-08-03T01:39:32.911Z,3.30
2022-08-03T01:42:06.142Z,3.30
2022-08-03T01:44:37.139Z,3.57
2022-08-03T01:47:06.435Z,3.07
2022-08-03T01:49:38.358Z,3.07
2022-08-03T01:52:06.382Z,2.93
2022-08-03T01:54:40.784Z,2.60
2022-08-03T01:57:09.520Z,2.53
2022-08-03T01:59:37.497Z,3.03
2022-08-03T02:02:28.703Z,2.73
2022-08-03T02:04:57.771Z,2.97
2022-08-03T02:07:26.984Z,2.78
2022-08-03T02:09:55.424Z,3.20
2022-08-03T02:12:25.024Z,3.20
2022-08-03T02:14:52.690Z,3.13
2022-08-03T02:17:39.210Z,3.00
2022-08-03T02:20:09.022Z,3.20
2022-08-03T02:22:39.247Z,3.20
2022-08-03T02:25:06.920Z,3.00
2022-08-03T02:27:38.428Z,3.10
2022-08-03T02:30:10.891Z,3.10
2022-08-03T02:32:40.169Z,3.00
2022-08-03T02:35:11.849Z,3.30
2022-08-03T02:37:45.080Z,3.13
2022-08-03T02:40:19.235Z,3.27
2022-08-03T02:42:48.518Z,3.03
2022-08-03T02:45:18.794Z,2.90
2022-08-03T02:47:54.528Z,3.20
2022-08-03T02:50:24.049Z,3.40
2022-08-03T02:52:52.170Z,3.47
2022-08-03T02:55:20.742Z,2.90
2022-08-03T02:57:48.247Z,3.00
2022-08-03T03:00:27.099Z,3.27
2022-08-03T03:02:58.179Z,3.17
2022-08-03T03:05:54.338Z,2.97
2022-08-03T03:08:18.759Z,3.13
2022-08-03T03:10:48.170Z,3.20
2022-08-03T03:13:16.155Z,3.70
2022-08-03T03:15:44.827Z,3.20
2022-08-03T03:18:12.868Z,3.50
2022-08-03T03:20:40.794Z,3.47
2022-08-03T03:23:09.319Z,3.00
2022-08-03T03:25:36.532Z,3.33
2022-08-03T03:28:03.544Z,3.07
2022-08-03T03:30:33.323Z,3.10
2022-08-03T03:33:00.808Z,2.97
2022-08-03T03:35:27.788Z,3.10
2022-08-03T03:37:55.126Z,2.70
2022-08-03T03:40:23.643Z,2.83
2022-08-03T03:42:51.026Z,3.23
2022-08-03T03:45:18.657Z,3.33
2022-08-03T03:47:45.376Z,3.60
2022-08-03T03:50:12.515Z,3.03
2022-08-03T03:52:39.638Z,3.13
2022-08-03T03:55:06.760Z,3.37
2022-08-03T03:57:34.465Z,3.30
2022-08-03T04:00:00.982Z,3.00
2022-08-03T04:02:27.653Z,2.77
2022-08-03T04:05:13.430Z,3.00
2022-08-03T04:08:16.566Z,3.17
2022-08-03T04:11:00.463Z,3.20
2022-08-03T04:13:38.541Z,3.10
2022-08-03T04:16:08.599Z,3.20
2022-08-03T04:18:38.257Z,3.53
2022-08-03T04:21:08.654Z,2.90
2022-08-03T04:23:39.034Z,3.47
2022-08-03T04:26:09.913Z,3.40
2022-08-03T04:28:39.539Z,3.53
2022-08-03T04:31:07.267Z,3.40
2022-08-03T04:33:37.198Z,3.57
2022-08-03T04:36:07.623Z,3.40
2022-08-03T04:38:40.547Z,3.17
2022-08-03T04:41:09.216Z,3.20
2022-08-03T04:43:39.534Z,3.67
2022-08-03T04:46:08.184Z,3.30
2022-08-03T04:48:35.099Z,3.40
2022-08-03T04:51:04.256Z,3.20
2022-08-03T04:53:31.315Z,3.40
2022-08-03T04:56:05.478Z,3.07
2022-08-03T04:58:32.015Z,3.53
2022-08-03T05:00:58.437Z,3.27
2022-08-03T05:03:25.128Z,3.30
2022-08-03T05:06:09.815Z,3.33
2022-08-03T05:08:46.336Z,3.07
2022-08-03T05:11:15.103Z,3.77
2022-08-03T05:13:41.616Z,2.63
2022-08-03T05:16:08.084Z,2.87
2022-08-03T05:18:35.824Z,3.10
2022-08-03T05:21:02.307Z,3.37
2022-08-03T05:23:28.693Z,3.40
2022-08-03T05:25:55.753Z,3.23
2022-08-03T05:28:22.367Z,3.47
2022-08-03T05:30:49.105Z,3.20
2022-08-03T05:33:15.535Z,3.40
2022-08-03T05:36:02.142Z,3.40
2022-08-03T05:38:34.294Z,3.10
2022-08-03T05:41:22.682Z,3.10
2022-08-03T05:43:49.074Z,2.90
2022-08-03T05:46:15.803Z,3.10
2022-08-03T05:48:42.942Z,2.87
2022-08-03T05:51:11.902Z,3.10
2022-08-03T05:53:39.562Z,3.70
2022-08-03T05:56:13.834Z,2.87
2022-08-03T05:58:43.827Z,2.97
2022-08-03T06:01:10.308Z,3.28
2022-08-03T06:03:36.766Z,3.10
2022-08-03T06:06:03.247Z,3.17
2022-08-03T06:08:29.725Z,3.10
2022-08-03T06:10:56.262Z,3.30
2022-08-03T06:13:22.704Z,3.00
2022-08-03T06:15:49.126Z,2.83
2022-08-03T06:18:15.579Z,3.07
2022-08-03T06:20:41.998Z,3.10
2022-08-03T06:23:15.927Z,3.28
2022-08-03T06:25:44.629Z,3.30
2022-08-03T06:28:35.280Z,2.70
2022-08-03T06:30:58.913Z,2.80
2022-08-03T06:33:48.225Z,2.45
2022-08-03T06:36:12.931Z,2.87
2022-08-03T06:38:39.451Z,2.60
2022-08-03T06:41:05.852Z,2.90
2022-08-03T06:43:35.881Z,2.63
2022-08-03T06:46:02.465Z,2.60
2022-08-03T06:48:29.036Z,2.80
2022-08-03T06:50:55.532Z,2.85
2022-08-03T06:53:22.504Z,2.58
2022-08-03T06:55:53.859Z,2.80
2022-08-03T06:58:20.997Z,3.10
2022-08-03T07:00:47.524Z,3.30
2022-08-03T07:03:15.113Z,3.28
2022-08-03T07:05:43.507Z,3.85
2022-08-03T07:08:10.270Z,3.45
2022-08-03T07:10:37.131Z,3.47
2022-08-03T07:13:04.026Z,3.00
2022-08-03T07:15:53.999Z,3.78
2022-08-03T07:18:17.546Z,3.42
2022-08-03T07:20:54.244Z,3.65
2022-08-03T07:23:20.717Z,4.10
2022-08-03T07:25:47.172Z,4.38
2022-08-03T07:28:14.761Z,4.90
2022-08-03T07:30:41.322Z,3.90
2022-08-03T07:33:07.701Z,4.30
2022-08-03T07:35:34.211Z,3.95
2022-08-03T07:38:00.795Z,3.80
2022-08-03T07:40:31.902Z,3.63
2022-08-03T07:42:58.923Z,3.25
2022-08-03T07:45:26.996Z,2.95
2022-08-03T07:47:54.247Z,2.95
2022-08-03T07:50:22.169Z,3.08
2022-08-03T07:52:49.932Z,2.83
2022-08-03T07:55:18.474Z,2.95
2022-08-03T07:57:45.146Z,3.10
2022-08-03T08:00:17.976Z,3.50
2022-08-03T08:02:45.348Z,2.83
2022-08-03T08:05:12.626Z,2.92
2022-08-03T08:07:39.735Z,2.83
2022-08-03T08:10:07.927Z,2.80
2022-08-03T08:12:34.362Z,2.70
2022-08-03T08:15:01.530Z,2.63
2022-08-03T08:17:28.884Z,2.60
2022-08-03T08:19:55.414Z,2.60
2022-08-03T08:22:29.791Z,2.95
2022-08-03T08:24:57.538Z,2.67
2022-08-03T08:27:23.953Z,3.05
2022-08-03T08:29:54.552Z,2.90
2022-08-03T08:32:23.282Z,3.15
2022-08-03T08:34:49.826Z,3.78
2022-08-03T08:37:16.449Z,3.42
2022-08-03T08:39:42.865Z,3.10
2022-08-03T08:42:10.444Z,3.13
2022-08-03T08:44:36.951Z,3.40
2022-08-03T08:47:04.113Z,3.05
2022-08-03T08:49:33.039Z,3.00
2022-08-03T08:52:01.621Z,3.00
2022-08-03T08:54:29.592Z,2.88
2022-08-03T08:57:01.524Z,3.03
2022-08-03T08:59:48.337Z,3.30
2022-08-03T09:02:15.061Z,3.13
2022-08-03T09:04:42.329Z,3.10
2022-08-03T09:07:20.147Z,3.20
2022-08-03T09:10:08.322Z,3.17
2022-08-03T09:12:42.160Z,3.40
2022-08-03T09:15:21.834Z,3.08
2022-08-03T09:17:51.237Z,3.10
2022-08-03T09:20:19.212Z,2.90
2022-08-03T09:23:09.737Z,3.50
2022-08-03T09:25:48.306Z,2.67
2022-08-03T09:28:52.740Z,2.88
2022-08-03T09:31:07.635Z,3.00
2022-08-03T09:33:47.648Z,2.83
2022-08-03T09:36:37.244Z,3.17
2022-08-03T09:39:06.318Z,2.90
2022-08-03T09:41:34.028Z,3.00
2022-08-03T09:44:00.700Z,2.97
2022-08-03T09:46:31.641Z,2.85
2022-08-03T09:49:12.012Z,2.53
2022-08-03T09:52:33.053Z,2.30
2022-08-03T09:54:31.666Z,2.78
2022-08-03T09:56:58.584Z,2.97
2022-08-03T09:59:27.141Z,2.58
2022-08-03T10:01:54.648Z,2.60
2022-08-03T10:04:23.282Z,2.60
2022-08-03T10:07:04.989Z,2.53
2022-08-03T10:09:31.958Z,2.30
2022-08-03T10:12:07.269Z,2.83
2022-08-03T10:14:34.046Z,2.80
2022-08-03T10:17:00.532Z,2.38
2022-08-03T10:19:26.974Z,2.60
2022-08-03T10:22:01.128Z,2.80
2022-08-03T10:24:30.491Z,2.30
2022-08-03T10:27:03.572Z,2.38
2022-08-03T10:29:34.875Z,2.20
2022-08-03T10:32:04.302Z,2.35
2022-08-03T10:34:35.452Z,1.95
2022-08-03T10:37:08.324Z,2.20
2022-08-03T10:39:36.054Z,1.95
2022-08-03T10:42:04.024Z,1.88
2022-08-03T10:44:40.386Z,1.80
2022-08-03T10:47:09.826Z,1.90
2022-08-03T10:49:36.704Z,1.80
2022-08-03T10:52:12.785Z,2.50
2022-08-03T10:55:10.706Z,2.55
2022-08-03T10:57:56.168Z,2.25
2022-08-03T11:00:27.345Z,2.13
2022-08-03T11:03:16.447Z,2.00
2022-08-03T11:05:49.022Z,1.90
2022-08-03T11:08:23.106Z,2.17
2022-08-03T11:10:52.210Z,2.10
2022-08-03T11:13:20.854Z,1.88
2022-08-03T11:15:49.836Z,1.50
2022-08-03T11:18:16.809Z,1.63
2022-08-03T11:20:46.820Z,1.60
2022-08-03T11:23:14.410Z,1.80
2022-08-03T11:26:12.834Z,1.80
2022-08-03T11:28:40.315Z,2.22
2022-08-03T11:31:46.763Z,3.85
2022-08-03T11:34:13.917Z,1.70
2022-08-03T11:37:18.472Z,1.80
2022-08-03T11:39:47.591Z,1.80
2022-08-03T11:42:23.118Z,2.35
2022-08-03T11:45:00.110Z,3.17
2022-08-03T11:47:28.375Z,2.28
2022-08-03T11:50:02.086Z,2.20
2022-08-03T11:52:35.329Z,1.88
2022-08-03T11:55:02.227Z,1.70
2022-08-03T11:59:17.904Z,1.80
2022-08-03T12:00:23.706Z,1.90
2022-08-03T12:03:07.955Z,2.20
2022-08-03T12:05:52.864Z,2.20
2022-08-03T12:08:28.421Z,2.10
2022-08-03T12:10:57.637Z,1.85
2022-08-03T12:14:26.889Z,2.50
2022-08-03T12:16:20.694Z,2.13
2022-08-03T12:19:06.570Z,2.40
2022-08-03T12:21:33.007Z,2.45
2022-08-03T12:24:02.524Z,2.08
2022-08-03T12:26:30.832Z,2.35
2022-08-03T12:28:58.287Z,1.80
2022-08-03T12:31:25.175Z,2.17
2022-08-03T12:34:03.379Z,2.08
2022-08-03T12:36:32.586Z,2.70
2022-08-03T12:39:07.920Z,2.45
2022-08-03T12:41:39.819Z,2.20
2022-08-03T12:44:07.886Z,2.03
2022-08-03T12:46:36.253Z,1.90
2022-08-03T12:49:11.320Z,1.85
2022-08-03T12:51:44.037Z,2.30
2022-08-03T12:54:17.599Z,1.98
2022-08-03T12:57:05.091Z,1.80
2022-08-03T12:59:35.254Z,2.33
2022-08-03T13:02:16.210Z,2.03
2022-08-03T13:04:45.933Z,1.90
2022-08-03T13:07:14.453Z,1.63
2022-08-03T13:09:46.407Z,2.28
2022-08-03T13:12:29.810Z,1.80
2022-08-03T13:14:59.286Z,1.95
2022-08-03T13:17:26.967Z,1.70
2022-08-03T13:19:53.975Z,2.03
2022-08-03T13:22:22.113Z,2.15
2022-08-03T13:24:50.614Z,2.00
2022-08-03T13:28:13.791Z,2.15
2022-08-03T13:30:04.831Z,2.90
2022-08-03T13:32:31.731Z,1.90
2022-08-03T13:34:58.175Z,2.25
2022-08-03T13:37:25.534Z,1.98
2022-08-03T13:39:58.978Z,1.98
2022-08-03T13:42:30.894Z,2.10
2022-08-03T13:44:57.683Z,2.10
2022-08-03T13:47:24.217Z,2.05
2022-08-03T13:50:00.156Z,2.15
2022-08-03T13:52:36.299Z,1.90
2022-08-03T13:55:05.282Z,2.03
2022-08-03T13:58:06.537Z,1.80
2022-08-03T14:00:27.044Z,1.95
2022-08-03T14:03:01.876Z,1.70
2022-08-03T14:05:34.159Z,2.00
2022-08-03T14:08:03.823Z,1.75
2022-08-03T14:10:32.595Z,1.90
2022-08-03T14:13:00.569Z,2.00
2022-08-03T14:15:28.640Z,1.73
2022-08-03T14:17:56.183Z,2.47
2022-08-03T14:20:36.775Z,2.53
2022-08-03T14:23:06.778Z,1.95
2022-08-03T14:25:43.424Z,2.08
2022-08-03T14:28:22.556Z,2.00
2022-08-03T14:30:50.263Z,2.15
2022-08-03T14:33:16.796Z,1.80
2022-08-03T14:35:43.263Z,1.70
2022-08-03T14:38:09.831Z,2.08
2022-08-03T14:40:36.235Z,1.90
2022-08-03T14:43:02.726Z,2.67
2022-08-03T14:45:29.282Z,2.40
2022-08-03T14:50:10.396Z,1.83
2022-08-03T14:50:48.308Z,1.70
2022-08-03T14:53:17.605Z,1.85
2022-08-03T14:55:50.460Z,1.88
2022-08-03T14:58:22.196Z,1.83
2022-08-03T15:00:52.904Z,2.13
2022-08-03T15:03:22.988Z,2.30
2022-08-03T15:05:53.582Z,2.30
2022-08-03T15:08:20.767Z,1.85
2022-08-03T15:10:49.134Z,2.05
2022-08-03T15:13:16.647Z,2.10
2022-08-03T15:15:43.559Z,1.98
2022-08-03T15:18:10.121Z,2.20
2022-08-03T15:20:44.823Z,2.03
2022-08-03T15:23:12.281Z,2.15
2022-08-03T15:26:28.841Z,2.10
2022-08-03T15:28:26.803Z,2.00
2022-08-03T15:30:53.318Z,2.15
2022-08-03T15:33:19.937Z,2.00
2022-08-03T15:35:47.395Z,1.88
2022-08-03T15:38:13.896Z,1.77
2022-08-03T15:40:40.355Z,1.70
2022-08-03T15:43:07.012Z,1.70
2022-08-03T15:45:35.398Z,1.88
2022-08-03T15:48:03.238Z,1.90
2022-08-03T15:50:29.628Z,1.75
2022-08-03T15:52:56.744Z,1.65
2022-08-03T15:55:23.237Z,1.90
2022-08-03T15:59:04.449Z,1.55
2022-08-03T16:00:36.168Z,2.20
2022-08-03T16:03:02.822Z,2.00
2022-08-03T16:05:29.543Z,1.52
2022-08-03T16:08:03.931Z,1.92
2022-08-03T16:10:31.546Z,2.08
2022-08-03T16:13:01.191Z,2.08
2022-08-03T16:15:28.248Z,1.75
2022-08-03T16:17:55.590Z,1.73
2022-08-03T16:20:30.738Z,1.63
2022-08-03T16:23:10.530Z,1.90
2022-08-03T16:25:44.389Z,1.75
2022-08-03T16:28:16.515Z,2.00
2022-08-03T16:30:45.246Z,2.13
2022-08-03T16:33:16.862Z,1.85
2022-08-03T16:35:43.666Z,2.65
2022-08-03T16:38:13.091Z,1.90
2022-08-03T16:40:41.889Z,1.70
2022-08-03T16:43:18.537Z,2.10
2022-08-03T16:45:46.583Z,2.30
2022-08-03T16:48:13.644Z,2.13
2022-08-03T16:50:40.113Z,2.10
2022-08-03T16:53:09.317Z,2.15
2022-08-03T16:55:51.926Z,1.98
2022-08-03T16:58:41.274Z,1.65
2022-08-03T17:01:24.278Z,1.73
2022-08-03T17:04:04.625Z,1.92
2022-08-03T17:06:38.102Z,1.70
2022-08-03T17:09:18.961Z,1.88
2022-08-03T17:11:50.249Z,2.00
2022-08-03T17:14:21.964Z,2.33
2022-08-03T17:16:52.829Z,1.83
2022-08-03T17:19:24.884Z,1.80
2022-08-03T17:21:59.702Z,2.20
2022-08-03T17:24:32.872Z,1.85
2022-08-03T17:27:03.530Z,1.73
2022-08-03T17:29:39.299Z,2.10
2022-08-03T17:32:17.881Z,2.15
2022-08-03T17:34:47.204Z,3.75
2022-08-03T17:37:50.171Z,2.70
2022-08-03T17:40:04.002Z,1.98
2022-08-03T17:42:32.955Z,2.17
2022-08-03T17:45:01.570Z,2.20
2022-08-03T17:47:42.229Z,2.03
2022-08-03T17:50:24.364Z,1.77
2022-08-03T17:52:58.151Z,1.75
2022-08-03T17:55:55.732Z,1.52
2022-08-03T17:58:22.213Z,1.80
2022-08-03T18:01:59.995Z,1.67
2022-08-03T18:04:03.686Z,1.77
2022-08-03T18:06:56.451Z,1.85
2022-08-03T18:10:04.571Z,1.48
2022-08-03T18:12:24.138Z,1.50
2022-08-03T18:15:01.075Z,1.60
2022-08-03T18:17:55.750Z,1.40
2022-08-03T18:20:32.760Z,1.40
2022-08-03T18:23:04.493Z,1.30
2022-08-03T18:25:42.958Z,1.52
2022-08-03T18:28:18.694Z,2.08
2022-08-03T18:30:54.176Z,1.77
2022-08-03T18:34:19.213Z,1.83
2022-08-03T18:36:17.987Z,1.40
2022-08-03T18:38:46.630Z,1.38
2022-08-03T18:41:20.718Z,1.50
2022-08-03T18:44:07.092Z,1.50
2022-08-03T18:46:41.730Z,1.35
2022-08-03T18:49:16.594Z,1.63
2022-08-03T18:51:46.334Z,1.55
2022-08-03T18:54:45.882Z,1.95
2022-08-03T18:57:14.508Z,1.90
2022-08-03T19:00:00.047Z,1.55
2022-08-03T19:02:39.056Z,1.88
2022-08-03T19:05:09.312Z,1.83
2022-08-03T19:07:38.100Z,1.52
2022-08-03T19:10:07.428Z,1.77
2022-08-03T19:12:52.948Z,1.73
2022-08-03T19:15:36.567Z,1.83
2022-08-03T19:18:11.116Z,1.60
2022-08-03T19:20:37.795Z,1.58
2022-08-03T19:23:04.431Z,1.75
2022-08-03T19:25:40.625Z,1.20
2022-08-03T19:28:08.846Z,1.80
2022-08-03T19:30:38.952Z,1.52
2022-08-03T19:33:11.730Z,1.70
2022-08-03T19:35:52.120Z,1.60
2022-08-03T19:38:27.453Z,1.45
2022-08-03T19:41:01.633Z,1.42
2022-08-03T19:43:53.313Z,1.40
2022-08-03T19:46:31.343Z,1.65
2022-08-03T19:49:15.264Z,1.63
2022-08-03T19:52:01.225Z,1.63
2022-08-03T19:54:36.886Z,1.90
2022-08-03T19:57:17.964Z,1.98
2022-08-03T19:59:49.678Z,2.00
2022-08-03T20:02:25.672Z,2.00
2022-08-03T20:04:57.742Z,1.88
2022-08-03T20:07:28.594Z,1.83
2022-08-03T20:09:56.512Z,1.85
2022-08-03T20:12:26.648Z,1.70
2022-08-03T20:14:57.695Z,1.80
2022-08-03T20:17:54.100Z,1.73
2022-08-03T20:20:12.062Z,2.03
2022-08-03T20:22:43.115Z,2.28
2022-08-03T20:25:16.338Z,2.15
2022-08-03T20:28:06.870Z,1.95
2022-08-03T20:30:39.236Z,1.75
2022-08-03T20:33:09.186Z,2.17
2022-08-03T20:35:35.567Z,2.30
2022-08-03T20:38:03.090Z,2.10
2022-08-03T20:40:29.663Z,1.73
2022-08-03T20:42:56.242Z,2.10
2022-08-03T20:46:00.113Z,2.05
2022-08-03T20:48:10.115Z,2.03
2022-08-03T20:50:38.510Z,1.80
2022-08-03T20:53:06.383Z,2.67
2022-08-03T20:55:47.839Z,1.77
2022-08-03T20:58:20.250Z,1.95
2022-08-03T21:00:51.587Z,2.17
2022-08-03T21:03:18.617Z,2.30
2022-08-03T21:05:51.668Z,2.38
2022-08-03T21:08:25.551Z,2.28
2022-08-03T21:10:53.720Z,2.20
2022-08-03T21:13:31.832Z,1.92
2022-08-03T21:16:12.564Z,2.38
2022-08-03T21:18:51.506Z,2.35
2022-08-03T21:21:20.894Z,2.75
2022-08-03T21:23:54.618Z,2.38
2022-08-03T21:26:23.936Z,2.40
2022-08-03T21:28:52.338Z,2.50
2022-08-03T21:31:25.358Z,1.92
2022-08-03T21:33:55.406Z,2.10
2022-08-03T21:36:21.834Z,2.10
2022-08-03T21:38:56.191Z,2.13
2022-08-03T21:41:23.704Z,2.45
2022-08-03T21:43:50.146Z,2.15
2022-08-03T21:46:19.344Z,1.95
2022-08-03T21:48:53.606Z,1.90
2022-08-03T21:51:25.089Z,3.13
2022-08-03T21:54:02.322Z,3.08
2022-08-03T21:56:37.164Z,2.20
2022-08-03T21:59:07.618Z,1.77
2022-08-03T22:01:36.698Z,2.72
2022-08-03T22:04:07.542Z,2.42
2022-08-03T22:06:42.286Z,2.28
2022-08-03T22:09:09.105Z,2.22
2022-08-03T22:11:37.428Z,2.28
2022-08-03T22:14:04.170Z,2.38
2022-08-03T22:16:30.786Z,2.53
2022-08-03T22:18:57.223Z,1.98
2022-08-03T22:21:36.111Z,2.47
2022-08-03T22:24:05.326Z,2.30
2022-08-03T22:26:35.463Z,2.10
2022-08-03T22:29:07.936Z,2.17
2022-08-03T22:31:58.566Z,1.77
2022-08-03T22:34:27.372Z,1.98
2022-08-03T22:37:00.328Z,2.13
2022-08-03T22:39:28.790Z,2.25
2022-08-03T22:41:58.941Z,2.42
2022-08-03T22:44:26.984Z,2.20
2022-08-03T22:46:54.124Z,2.30
2022-08-03T22:49:21.663Z,2.17
2022-08-03T22:51:50.679Z,1.92
2022-08-03T22:54:17.233Z,2.10
2022-08-03T22:56:46.498Z,2.10
2022-08-03T22:59:40.082Z,2.35
2022-08-03T23:02:20.366Z,2.17
2022-08-03T23:04:55.118Z,2.20
2022-08-03T23:07:37.050Z,1.80
2022-08-03T23:10:09.522Z,2.00
2022-08-03T23:12:37.809Z,1.85
2022-08-03T23:15:09.815Z,2.53
2022-08-03T23:17:57.337Z,2.10
2022-08-03T23:20:26.793Z,1.88
2022-08-03T23:22:55.158Z,2.33
2022-08-03T23:25:22.004Z,2.35
2022-08-03T23:27:50.521Z,2.85
2022-08-03T23:30:37.053Z,2.45
2022-08-03T23:33:04.300Z,3.10
2022-08-03T23:36:28.179Z,3.05
2022-08-03T23:38:37.647Z,2.80
2022-08-03T23:41:04.805Z,2.70
2022-08-03T23:43:53.560Z,2.60
2022-08-03T23:46:24.051Z,2.50
2022-08-03T23:48:51.177Z,2.35
2022-08-03T23:51:29.565Z,1.92
2022-08-03T23:54:06.550Z,2.38
2022-08-03T23:56:51.642Z,2.00
2022-08-03T23:59:27.846Z,2.28
